Aviation Digital Data Service (ADDS)

Output produced by METARs form (1705 UTC 03 June 2020)
found at http://www.aviationweather.gov/metar/data/
 
Forecast for: ZGNN (NANNING/WUXU , CN)
Text: TAF ZGNN 031508Z 0318/0418 15003MPS 5000 BR SCT030 TX33/0407Z TN26/0322Z
Forecast period: 1800 UTC 03 June 2020 to 1800 UTC 04 June 2020
Forecast type: FROM: standard forecast or significant change
Winds: from the SSE (150 degrees) at 7 MPH (6 knots; 3.1 m/s)
Visibility: 3 miles (5 km)
Ceiling: at least 12,000 feet AGL
Clouds: scattered clouds at 3000 feet AGL
Weather: BR  (mist)
Text: TEMPO 0405/0411 TSRA FEW010 FEW026CB BKN030
Forecast period: 0500 to 1100 UTC 04 June 2020
Forecast type: TEMPORARY: The following changes expected for less than half the time period
Visibility: missing
Ceiling: 3000 feet AGL
Clouds: few clouds at 1000 feet AGL
few clouds at 2600 feet AGL
broken clouds at 3000 feet AGL
Weather: TSRA  (rain associated with thunderstorm(s))